Time;durP1;ratioP1;P1;durP2;ratioP2;P2;SDS_P1;SDS_P2;PMS_P1;PMS_P2;Temp;Humidity;BMP_temperature;BMP_pressure;BME280_temperature;BME280_humidity;BME280_pressure;Samples;Min_cycle;Max_cycle;Signal;HPM_P1;HPM_P2
2023/08/06 00:01:07;;;;;;;6.30;5.70;;;;;;;;;;5057722;28;20048;-90
2023/08/06 00:03:33;;;;;;;6.22;5.82;;;;;;;;;;5058042;28;20060;-90
2023/08/06 00:05:59;;;;;;;6.38;6.03;;;;;;;;;;5074989;28;20052;-90
2023/08/06 00:08:25;;;;;;;6.78;6.07;;;;;;;;;;5056818;28;20136;-90
2023/08/06 00:10:51;;;;;;;8.52;6.78;;;;;;;;;;5057156;28;20063;-90
2023/08/06 00:13:18;;;;;;;6.35;5.78;;;;;;;;;;5040511;28;20094;-90
2023/08/06 00:15:44;;;;;;;6.63;6.13;;;;;;;;;;5074182;28;20048;-90
2023/08/06 00:18:10;;;;;;;6.85;6.18;;;;;;;;;;5073784;28;20048;-90
2023/08/06 00:20:38;;;;;;;7.25;6.65;;;;;;;;;;5040265;28;20041;-90
2023/08/06 00:23:05;;;;;;;7.35;6.85;;;;;;;;;;5056695;28;20048;-90
2023/08/06 00:25:31;;;;;;;7.15;6.55;;;;;;;;;;5040748;28;20126;-90
2023/08/06 00:27:57;;;;;;;7.65;7.07;;;;;;;;;;5057480;28;20051;-90
2023/08/06 00:30:23;;;;;;;7.38;6.88;;;;;;;;;;5073812;28;20044;-90
2023/08/06 00:32:49;;;;;;;8.13;7.53;;;;;;;;;;5074019;28;20044;-90
2023/08/06 00:35:15;;;;;;;7.88;7.18;;;;;;;;;;5057075;28;20063;-90
2023/08/06 00:37:41;;;;;;;8.07;7.40;;;;;;;;;;5057010;28;20145;-90
2023/08/06 00:40:08;;;;;;;8.85;7.70;;;;;;;;;;5039880;28;20040;-90
2023/08/06 00:42:34;;;;;;;8.88;8.05;;;;;;;;;;5057159;28;20098;-90
2023/08/06 00:45:01;;;;;;;7.45;6.85;;;;;;;;;;5056797;28;20056;-89
2023/08/06 00:47:27;;;;;;;7.97;7.20;;;;;;;;;;5056685;28;20044;-89
2023/08/06 00:49:53;;;;;;;8.25;7.38;;;;;;;;;;5039764;28;20051;-89
2023/08/06 00:52:19;;;;;;;8.07;7.32;;;;;;;;;;5073371;28;20366;-89
2023/08/06 00:54:45;;;;;;;12.18;7.70;;;;;;;;;;5073574;28;20052;-89
2023/08/06 00:57:12;;;;;;;7.75;7.18;;;;;;;;;;5040221;28;20054;-89
2023/08/06 00:59:38;;;;;;;10.73;9.38;;;;;;;;;;5074945;28;20476;-89
2023/08/06 01:02:04;;;;;;;7.85;7.18;;;;;;;;;;5043795;28;20060;-88
2023/08/06 01:04:32;;;;;;;8.10;7.43;;;;;;;;;;5060854;28;20044;-89
2023/08/06 01:07:01;;;;;;;7.50;6.80;;;;;;;;;;5077567;28;20056;-89
2023/08/06 01:09:40;;;;;;;8.00;7.45;;;;;;;;;;5060605;28;20569;-89
2023/08/06 01:12:06;;;;;;;9.10;7.75;;;;;;;;;;5060723;28;20139;-89
2023/08/06 01:14:50;;;;;;;6.88;6.47;;;;;;;;;;5060431;28;20086;-89
2023/08/06 01:17:17;;;;;;;7.35;6.85;;;;;;;;;;5060015;28;20488;-88
2023/08/06 01:19:43;;;;;;;7.78;7.18;;;;;;;;;;5060615;28;20041;-88
2023/08/06 01:22:09;;;;;;;7.85;7.25;;;;;;;;;;5060388;28;20050;-89
2023/08/06 01:24:35;;;;;;;6.90;6.35;;;;;;;;;;5076845;28;20067;-89
2023/08/06 01:27:05;;;;;;;6.78;6.38;;;;;;;;;;5077228;28;20528;-89
2023/08/06 01:29:45;;;;;;;9.98;7.10;;;;;;;;;;5077030;28;20131;-89
2023/08/06 01:32:12;;;;;;;7.93;7.28;;;;;;;;;;5078098;28;20044;-89
2023/08/06 01:34:40;;;;;;;7.03;6.55;;;;;;;;;;5060603;28;20067;-88
2023/08/06 01:37:06;;;;;;;7.47;6.75;;;;;;;;;;5077029;28;20105;-88
2023/08/06 01:39:34;;;;;;;7.68;7.18;;;;;;;;;;5076529;28;20079;-88
2023/08/06 01:42:00;;;;;;;7.90;7.32;;;;;;;;;;5060843;28;20052;-88
2023/08/06 01:44:26;;;;;;;7.72;7.03;;;;;;;;;;5060444;28;20476;-88
2023/08/06 01:46:52;;;;;;;7.50;6.93;;;;;;;;;;5043778;28;20393;-88
2023/08/06 01:49:18;;;;;;;9.93;8.95;;;;;;;;;;5076888;28;20055;-88
2023/08/06 01:51:44;;;;;;;8.43;6.82;;;;;;;;;;5059708;28;20044;-88
2023/08/06 01:54:10;;;;;;;7.68;6.88;;;;;;;;;;5076187;28;20086;-88
2023/08/06 01:56:36;;;;;;;7.93;7.40;;;;;;;;;;5060024;28;20044;-88
2023/08/06 01:59:02;;;;;;;8.30;7.70;;;;;;;;;;5076452;28;20040;-88
2023/08/06 02:01:29;;;;;;;7.05;6.45;;;;;;;;;;5043057;28;20082;-88
2023/08/06 02:03:55;;;;;;;6.70;6.20;;;;;;;;;;5077296;28;20048;-88
2023/08/06 02:06:21;;;;;;;7.43;6.82;;;;;;;;;;5059958;28;20056;-88
2023/08/06 02:08:47;;;;;;;8.15;7.00;;;;;;;;;;5075724;28;20071;-87
2023/08/06 02:11:13;;;;;;;7.50;7.00;;;;;;;;;;5075120;28;20045;-88
2023/08/06 02:13:39;;;;;;;7.22;6.63;;;;;;;;;;5059459;28;20040;-88
2023/08/06 02:16:08;;;;;;;7.10;6.35;;;;;;;;;;5076622;28;20052;-88
2023/08/06 02:18:34;;;;;;;6.88;6.32;;;;;;;;;;5059579;28;20048;-88
2023/08/06 02:21:00;;;;;;;8.07;7.05;;;;;;;;;;5076488;28;20045;-88
2023/08/06 02:23:27;;;;;;;7.00;6.50;;;;;;;;;;5076353;28;20048;-88
2023/08/06 02:25:59;;;;;;;7.35;6.78;;;;;;;;;;5059384;28;20048;-88
2023/08/06 02:28:26;;;;;;;7.25;6.25;;;;;;;;;;5059164;28;20480;-88
2023/08/06 02:30:52;;;;;;;7.55;6.95;;;;;;;;;;5059101;28;20385;-89
2023/08/06 02:33:18;;;;;;;7.35;6.75;;;;;;;;;;5042300;28;20048;-88
2023/08/06 02:35:44;;;;;;;9.07;8.15;;;;;;;;;;5076047;28;20061;-89
2023/08/06 02:38:10;;;;;;;7.30;6.60;;;;;;;;;;5059531;28;20135;-89
2023/08/06 02:40:36;;;;;;;8.10;7.40;;;;;;;;;;5059173;28;20044;-89
2023/08/06 02:43:02;;;;;;;8.55;7.88;;;;;;;;;;5042716;28;20432;-89
2023/08/06 02:45:29;;;;;;;9.57;8.77;;;;;;;;;;5059336;28;20131;-89
2023/08/06 02:47:55;;;;;;;8.23;7.63;;;;;;;;;;5059710;28;20098;-89
2023/08/06 02:50:21;;;;;;;8.55;7.85;;;;;;;;;;5059102;28;20048;-89
2023/08/06 02:52:47;;;;;;;8.65;7.80;;;;;;;;;;5059073;28;20052;-90
2023/08/06 02:55:13;;;;;;;8.93;8.23;;;;;;;;;;5059046;28;20051;-89
2023/08/06 02:57:40;;;;;;;9.25;8.55;;;;;;;;;;5075697;28;20097;-89
2023/08/06 03:00:06;;;;;;;10.05;9.05;;;;;;;;;;5058279;28;20044;-89
2023/08/06 03:02:32;;;;;;;9.43;8.65;;;;;;;;;;5075085;28;20148;-90
2023/08/06 03:04:58;;;;;;;8.63;8.00;;;;;;;;;;5075896;28;20177;-89
2023/08/06 03:07:24;;;;;;;9.63;8.85;;;;;;;;;;5042483;28;20060;-90
2023/08/06 03:09:50;;;;;;;8.23;7.63;;;;;;;;;;5042109;28;20078;-89
2023/08/06 03:12:16;;;;;;;13.27;10.38;;;;;;;;;;5075697;28;20055;-90
2023/08/06 03:14:43;;;;;;;8.82;7.88;;;;;;;;;;5058961;28;20106;-89
2023/08/06 03:17:09;;;;;;;8.32;7.72;;;;;;;;;;5058859;28;20053;-89
2023/08/06 03:19:35;;;;;;;8.68;7.85;;;;;;;;;;5074726;28;20435;-90
2023/08/06 03:22:01;;;;;;;8.45;7.80;;;;;;;;;;5075037;28;20044;-90
2023/08/06 03:24:27;;;;;;;8.85;8.15;;;;;;;;;;5058505;28;20048;-90
2023/08/06 03:26:53;;;;;;;9.02;8.35;;;;;;;;;;5075530;28;20442;-90
2023/08/06 03:29:19;;;;;;;8.85;8.05;;;;;;;;;;5075029;28;20139;-90
2023/08/06 03:31:46;;;;;;;8.27;7.57;;;;;;;;;;5074614;28;20053;-89
2023/08/06 03:34:12;;;;;;;8.80;8.30;;;;;;;;;;5058256;28;20118;-89
2023/08/06 03:36:38;;;;;;;9.07;8.38;;;;;;;;;;5058517;28;20084;-89
2023/08/06 03:39:04;;;;;;;12.73;11.57;;;;;;;;;;5057511;28;20044;-89
2023/08/06 03:41:31;;;;;;;8.63;8.02;;;;;;;;;;5058107;28;20119;-90
2023/08/06 03:43:57;;;;;;;13.13;11.18;;;;;;;;;;5074866;28;20160;-90
2023/08/06 03:46:23;;;;;;;11.40;10.32;;;;;;;;;;5057752;28;20048;-90
2023/08/06 03:48:49;;;;;;;9.25;8.55;;;;;;;;;;5074504;28;20056;-89
2023/08/06 03:51:15;;;;;;;9.65;9.05;;;;;;;;;;5057997;28;20469;-90
2023/08/06 03:53:41;;;;;;;9.18;8.50;;;;;;;;;;5058248;28;20040;-89
2023/08/06 03:56:07;;;;;;;9.85;9.07;;;;;;;;;;5074627;28;20048;-89
2023/08/06 03:58:33;;;;;;;10.05;9.13;;;;;;;;;;5058041;28;20071;-89
2023/08/06 04:01:01;;;;;;;10.77;9.75;;;;;;;;;;5057627;28;20044;-89
2023/08/06 04:03:27;;;;;;;9.75;9.05;;;;;;;;;;5073881;28;20377;-89
2023/08/06 04:05:53;;;;;;;12.48;11.35;;;;;;;;;;5057705;28;20090;-88
2023/08/06 04:08:19;;;;;;;9.75;9.05;;;;;;;;;;5041356;28;20098;-90
2023/08/06 04:10:45;;;;;;;10.60;9.68;;;;;;;;;;5075151;28;20095;-89
2023/08/06 04:13:11;;;;;;;12.63;11.45;;;;;;;;;;5074611;28;20476;-89
2023/08/06 04:15:37;;;;;;;11.32;10.32;;;;;;;;;;5057763;28;20062;-89
2023/08/06 04:18:03;;;;;;;10.55;9.75;;;;;;;;;;5057831;28;20041;-89
2023/08/06 04:20:32;;;;;;;11.70;10.85;;;;;;;;;;5041697;28;20079;-90
2023/08/06 04:22:58;;;;;;;10.63;9.82;;;;;;;;;;5059380;28;20076;-90
2023/08/06 04:25:25;;;;;;;10.52;9.70;;;;;;;;;;5084366;28;20072;-89
2023/08/06 04:27:51;;;;;;;11.85;10.75;;;;;;;;;;5068982;28;20088;-90
2023/08/06 04:30:17;;;;;;;10.82;9.98;;;;;;;;;;5041778;28;20046;-90
2023/08/06 04:32:43;;;;;;;11.10;10.27;;;;;;;;;;5041201;28;20044;-90
2023/08/06 04:35:09;;;;;;;11.15;10.13;;;;;;;;;;5040075;28;20066;-90
2023/08/06 04:37:35;;;;;;;11.48;10.43;;;;;;;;;;5057766;28;20504;-90
2023/08/06 04:40:01;;;;;;;11.52;10.48;;;;;;;;;;5073428;28;20041;-89
2023/08/06 04:42:27;;;;;;;10.75;10.05;;;;;;;;;;5057359;28;20045;-89
2023/08/06 04:44:53;;;;;;;11.57;10.73;;;;;;;;;;5040959;28;20048;-89
2023/08/06 04:47:19;;;;;;;13.45;12.13;;;;;;;;;;5040283;28;20082;-89
2023/08/06 04:49:45;;;;;;;11.82;10.93;;;;;;;;;;5057189;28;20052;-89
2023/08/06 04:52:12;;;;;;;10.35;9.52;;;;;;;;;;5073961;28;20041;-89
2023/08/06 04:54:38;;;;;;;11.32;10.35;;;;;;;;;;5057626;28;20040;-89
2023/08/06 04:57:04;;;;;;;11.55;10.63;;;;;;;;;;5057632;28;20067;-89
2023/08/06 04:59:30;;;;;;;12.27;11.18;;;;;;;;;;5056960;28;20041;-89
2023/08/06 05:01:56;;;;;;;10.98;10.18;;;;;;;;;;5073735;28;20052;-89
2023/08/06 05:04:22;;;;;;;11.05;10.05;;;;;;;;;;5040236;28;20405;-89
2023/08/06 05:06:48;;;;;;;11.55;10.43;;;;;;;;;;5056628;28;20109;-89
2023/08/06 05:09:14;;;;;;;11.50;10.70;;;;;;;;;;5056737;28;20094;-89
2023/08/06 05:11:40;;;;;;;12.38;11.38;;;;;;;;;;5073661;28;20036;-89
2023/08/06 05:14:07;;;;;;;14.60;13.30;;;;;;;;;;5056651;28;20055;-89
2023/08/06 05:16:33;;;;;;;12.10;11.20;;;;;;;;;;5040307;28;20084;-89
2023/08/06 05:18:59;;;;;;;10.00;9.40;;;;;;;;;;5040717;28;20044;-88
2023/08/06 05:21:25;;;;;;;12.25;11.15;;;;;;;;;;5056537;28;20473;-88
2023/08/06 05:23:51;;;;;;;12.15;11.02;;;;;;;;;;5073340;28;20036;-88
2023/08/06 05:26:19;;;;;;;11.55;10.82;;;;;;;;;;5056991;28;20048;-89
2023/08/06 05:28:45;;;;;;;11.52;10.63;;;;;;;;;;5056370;28;20075;-88
2023/08/06 05:31:14;;;;;;;11.85;10.93;;;;;;;;;;5073154;28;20045;-89
2023/08/06 05:33:40;;;;;;;10.68;9.93;;;;;;;;;;5056958;28;20471;-88
2023/08/06 05:36:06;;;;;;;10.85;10.07;;;;;;;;;;5057020;28;20052;-88
2023/08/06 05:38:33;;;;;;;12.15;11.25;;;;;;;;;;5056534;28;20059;-88
2023/08/06 05:40:59;;;;;;;11.30;10.40;;;;;;;;;;5073779;28;20403;-89
2023/08/06 05:43:25;;;;;;;11.52;10.70;;;;;;;;;;5040728;28;20552;-88
2023/08/06 05:45:51;;;;;;;11.57;10.77;;;;;;;;;;5058310;28;20048;-89
2023/08/06 05:48:17;;;;;;;12.18;11.02;;;;;;;;;;5059776;28;20050;-88
2023/08/06 05:50:43;;;;;;;12.25;11.15;;;;;;;;;;5075881;28;20044;-88
2023/08/06 05:53:09;;;;;;;12.80;11.90;;;;;;;;;;5059363;28;20056;-87
2023/08/06 05:55:35;;;;;;;13.77;12.68;;;;;;;;;;5059725;28;20139;-88
2023/08/06 05:58:02;;;;;;;14.57;13.57;;;;;;;;;;5043088;28;20135;-88
2023/08/06 06:00:28;;;;;;;15.90;14.48;;;;;;;;;;5076024;28;20472;-88
2023/08/06 06:02:54;;;;;;;16.65;15.15;;;;;;;;;;5059195;28;20139;-88
2023/08/06 06:05:20;;;;;;;15.60;14.32;;;;;;;;;;5059520;28;20549;-88
2023/08/06 06:07:46;;;;;;;18.98;17.55;;;;;;;;;;5076449;28;20052;-88
2023/08/06 06:10:12;;;;;;;19.00;17.48;;;;;;;;;;5075597;28;20059;-87
2023/08/06 06:12:39;;;;;;;18.23;16.65;;;;;;;;;;5076632;28;20044;-88
2023/08/06 06:15:05;;;;;;;18.02;16.63;;;;;;;;;;5059606;28;20052;-89
2023/08/06 06:17:32;;;;;;;21.20;19.35;;;;;;;;;;5041132;28;20044;-88
2023/08/06 06:19:58;;;;;;;21.08;19.40;;;;;;;;;;5075584;28;20043;-88
2023/08/06 06:22:24;;;;;;;21.20;19.38;;;;;;;;;;5076375;28;20098;-88
2023/08/06 06:24:50;;;;;;;21.60;19.75;;;;;;;;;;5059713;28;20455;-88
2023/08/06 06:27:16;;;;;;;22.17;20.27;;;;;;;;;;5059472;28;20041;-88
2023/08/06 06:29:42;;;;;;;22.60;20.60;;;;;;;;;;5059632;28;20104;-87
2023/08/06 06:32:08;;;;;;;21.70;19.90;;;;;;;;;;5075729;28;20079;-88
2023/08/06 06:34:34;;;;;;;22.08;20.13;;;;;;;;;;5059561;28;20044;-89
2023/08/06 06:37:00;;;;;;;21.90;19.90;;;;;;;;;;5075684;28;20595;-87
2023/08/06 06:39:26;;;;;;;21.75;20.05;;;;;;;;;;5075592;28;20190;-87
2023/08/06 06:41:52;;;;;;;22.73;20.63;;;;;;;;;;5059481;28;20051;-87
2023/08/06 06:44:20;;;;;;;22.15;20.15;;;;;;;;;;5059006;28;20083;-87
2023/08/06 06:46:46;;;;;;;21.63;19.90;;;;;;;;;;5075548;28;20053;-87
2023/08/06 06:49:12;;;;;;;22.60;20.80;;;;;;;;;;5042599;28;20102;-87
2023/08/06 06:51:38;;;;;;;20.83;18.83;;;;;;;;;;5075402;28;20044;-87
2023/08/06 06:54:04;;;;;;;20.30;18.70;;;;;;;;;;5109423;28;20118;-87
2023/08/06 06:56:30;;;;;;;18.40;16.95;;;;;;;;;;5042519;28;20060;-87
2023/08/06 06:58:56;;;;;;;19.08;17.67;;;;;;;;;;5041419;28;20048;-88
2023/08/06 07:01:22;;;;;;;19.05;17.48;;;;;;;;;;5042519;28;20392;-88
2023/08/06 07:03:49;;;;;;;24.90;23.25;;;;;;;;;;5074929;28;20105;-88
2023/08/06 07:06:15;;;;;;;1.50;0.77;;;;;;;;;;5058886;28;20048;-88
2023/08/06 07:08:41;;;;;;;15.10;11.27;;;;;;;;;;5074931;28;20131;-88
2023/08/06 07:11:08;;;;;;;5.85;4.72;;;;;;;;;;5075008;28;20052;-88
2023/08/06 07:13:37;;;;;;;12.65;11.35;;;;;;;;;;5058818;28;20051;-89
2023/08/06 07:16:03;;;;;;;13.77;12.75;;;;;;;;;;5075169;28;20048;-89
2023/08/06 07:18:29;;;;;;;14.35;13.25;;;;;;;;;;5042312;28;20389;-89
2023/08/06 07:20:55;;;;;;;14.13;13.02;;;;;;;;;;5074387;28;20045;-89
2023/08/06 07:23:22;;;;;;;13.48;12.18;;;;;;;;;;5075107;28;20080;-89
2023/08/06 07:25:48;;;;;;;14.10;13.02;;;;;;;;;;5075075;28;20044;-89
2023/08/06 07:28:15;;;;;;;13.27;12.27;;;;;;;;;;5059057;28;20052;-90
2023/08/06 07:30:42;;;;;;;12.80;11.88;;;;;;;;;;5075916;28;20051;-89
2023/08/06 07:33:08;;;;;;;13.20;12.18;;;;;;;;;;5058387;28;20110;-89
2023/08/06 07:35:34;;;;;;;12.63;11.65;;;;;;;;;;5058532;28;20052;-91
2023/08/06 07:38:00;;;;;;;13.20;12.20;;;;;;;;;;5075175;28;20044;-90
2023/08/06 07:40:26;;;;;;;13.48;12.23;;;;;;;;;;5041189;28;20138;-90
2023/08/06 07:42:52;;;;;;;12.38;11.48;;;;;;;;;;5075332;28;20044;-91
2023/08/06 07:45:19;;;;;;;12.90;11.95;;;;;;;;;;5058564;28;20135;-91
2023/08/06 07:47:45;;;;;;;11.93;11.23;;;;;;;;;;5075256;28;20040;-91
2023/08/06 07:50:11;;;;;;;11.55;10.70;;;;;;;;;;5042020;28;20072;-91
2023/08/06 07:52:37;;;;;;;11.80;11.00;;;;;;;;;;5059003;28;20384;-88
2023/08/06 07:55:04;;;;;;;12.25;11.25;;;;;;;;;;5058801;28;20040;-91
2023/08/06 07:57:31;;;;;;;11.65;10.85;;;;;;;;;;5075204;28;20082;-91
2023/08/06 07:59:57;;;;;;;11.95;11.15;;;;;;;;;;5059186;28;20032;-91
2023/08/06 08:02:23;;;;;;;11.20;10.50;;;;;;;;;;5042198;28;20044;-91
2023/08/06 08:04:50;;;;;;;11.10;10.30;;;;;;;;;;5057514;28;20055;-91
2023/08/06 08:07:16;;;;;;;10.63;9.90;;;;;;;;;;5059226;28;20481;-91
2023/08/06 08:09:42;;;;;;;9.85;9.15;;;;;;;;;;5058423;28;20121;-91
2023/08/06 08:12:08;;;;;;;10.20;9.50;;;;;;;;;;5074673;28;20044;-91
2023/08/06 08:14:35;;;;;;;11.35;10.43;;;;;;;;;;5057853;28;20045;-90
2023/08/06 08:17:05;;;;;;;10.23;9.40;;;;;;;;;;5074945;28;20041;-90
2023/08/06 08:19:32;;;;;;;9.35;8.60;;;;;;;;;;5041372;28;20123;-90
2023/08/06 08:21:58;;;;;;;9.10;8.60;;;;;;;;;;5058184;28;20063;-90
2023/08/06 08:24:24;;;;;;;9.95;9.15;;;;;;;;;;5057417;28;20043;-90
2023/08/06 08:26:51;;;;;;;9.45;8.73;;;;;;;;;;5074473;28;20098;-91
2023/08/06 08:29:17;;;;;;;10.43;9.82;;;;;;;;;;5074686;28;20045;-90
2023/08/06 08:31:44;;;;;;;9.32;8.73;;;;;;;;;;5041406;28;20059;-91
2023/08/06 08:34:10;;;;;;;8.63;8.13;;;;;;;;;;5074488;28;20079;-90
2023/08/06 08:36:36;;;;;;;8.25;7.80;;;;;;;;;;5074742;28;20037;-90
2023/08/06 08:39:04;;;;;;;10.20;9.30;;;;;;;;;;5057351;28;20044;-90
2023/08/06 08:41:31;;;;;;;9.57;9.00;;;;;;;;;;5057535;28;20045;-90
2023/08/06 08:43:59;;;;;;;8.27;7.53;;;;;;;;;;5074633;28;20127;-90
2023/08/06 08:46:26;;;;;;;8.07;7.57;;;;;;;;;;5075026;28;20381;-90
2023/08/06 08:48:52;;;;;;;7.78;7.28;;;;;;;;;;5058430;28;20416;-91
2023/08/06 08:51:19;;;;;;;8.23;7.72;;;;;;;;;;5074430;28;20094;-90
2023/08/06 08:53:46;;;;;;;7.25;6.95;;;;;;;;;;5074744;28;20106;-91
2023/08/06 08:56:14;;;;;;;8.00;7.28;;;;;;;;;;5041585;28;20048;-90
2023/08/06 08:58:40;;;;;;;7.47;6.93;;;;;;;;;;5058090;28;20051;-91
2023/08/06 09:01:07;;;;;;;7.22;6.70;;;;;;;;;;5057868;28;20048;-90
2023/08/06 09:03:34;;;;;;;7.65;7.25;;;;;;;;;;5057560;28;20472;-90
2023/08/06 09:06:03;;;;;;;8.73;8.13;;;;;;;;;;5057965;28;20115;-90
2023/08/06 09:08:34;;;;;;;8.20;7.55;;;;;;;;;;5074575;28;20040;-91
2023/08/06 09:11:02;;;;;;;6.82;6.45;;;;;;;;;;5058105;28;20559;-90
2023/08/06 09:13:28;;;;;;;6.43;5.93;;;;;;;;;;5073650;28;20059;-90
2023/08/06 09:15:54;;;;;;;6.78;6.25;;;;;;;;;;5040440;28;20044;-90
2023/08/06 09:18:30;;;;;;;6.40;5.95;;;;;;;;;;5073367;28;20040;-89
2023/08/06 09:20:57;;;;;;;5.75;5.32;;;;;;;;;;5075348;28;20036;-90
2023/08/06 09:23:30;;;;;;;6.18;5.78;;;;;;;;;;5077017;28;20041;-90
2023/08/06 09:25:56;;;;;;;5.50;5.10;;;;;;;;;;5078266;28;20063;-90
2023/08/06 09:28:24;;;;;;;6.18;5.72;;;;;;;;;;5061441;28;20048;-89
2023/08/06 09:30:51;;;;;;;5.57;5.18;;;;;;;;;;5077622;28;20052;-90
2023/08/06 09:33:20;;;;;;;5.10;4.80;;;;;;;;;;5077609;28;20052;-91
2023/08/06 09:35:47;;;;;;;5.10;4.80;;;;;;;;;;5077403;28;20095;-88
2023/08/06 09:38:13;;;;;;;6.03;5.47;;;;;;;;;;5077875;28;20041;-88
2023/08/06 09:40:40;;;;;;;4.72;4.45;;;;;;;;;;5059552;28;20472;-88
2023/08/06 09:43:06;;;;;;;5.22;4.93;;;;;;;;;;5076780;28;20059;-88
2023/08/06 09:45:36;;;;;;;5.32;5.00;;;;;;;;;;5059690;28;20147;-88
2023/08/06 09:48:06;;;;;;;6.00;4.88;;;;;;;;;;5076753;28;20045;-87
2023/08/06 09:50:33;;;;;;;4.97;4.68;;;;;;;;;;5076913;28;20044;-88
2023/08/06 09:53:03;;;;;;;4.97;4.68;;;;;;;;;;5076648;28;20127;-88
2023/08/06 09:55:29;;;;;;;5.40;5.00;;;;;;;;;;5076827;28;20056;-87
2023/08/06 09:57:55;;;;;;;4.03;3.72;;;;;;;;;;5059764;28;20477;-88
2023/08/06 10:00:22;;;;;;;3.58;3.47;;;;;;;;;;5076629;28;20109;-88
2023/08/06 10:02:51;;;;;;;4.47;4.18;;;;;;;;;;5077387;28;20048;-88
2023/08/06 10:05:17;;;;;;;5.63;3.60;;;;;;;;;;5076851;28;20049;-88
2023/08/06 10:07:45;;;;;;;3.70;3.50;;;;;;;;;;5077304;28;20556;-88
2023/08/06 10:10:11;;;;;;;3.67;3.30;;;;;;;;;;5059679;28;20048;-89
2023/08/06 10:12:41;;;;;;;4.28;3.92;;;;;;;;;;5060245;28;20044;-88
2023/08/06 10:15:10;;;;;;;4.13;3.92;;;;;;;;;;5060256;28;20063;-88
2023/08/06 10:17:37;;;;;;;4.05;3.65;;;;;;;;;;5076786;28;20049;-88
2023/08/06 10:20:06;;;;;;;3.63;3.30;;;;;;;;;;5059494;28;20037;-88
2023/08/06 10:22:33;;;;;;;3.67;3.47;;;;;;;;;;5059253;28;20127;-87
2023/08/06 10:25:04;;;;;;;3.83;3.53;;;;;;;;;;5075829;28;20048;-88
2023/08/06 10:27:31;;;;;;;3.50;3.20;;;;;;;;;;5075648;28;20148;-88
2023/08/06 10:30:17;;;;;;;3.40;3.20;;;;;;;;;;5061976;28;20044;-87
2023/08/06 10:32:53;;;;;;;2.42;2.30;;;;;;;;;;5058379;28;20051;-87
2023/08/06 10:35:38;;;;;;;3.15;2.95;;;;;;;;;;5077693;28;20047;-87
2023/08/06 10:38:15;;;;;;;3.65;3.45;;;;;;;;;;5077757;28;20488;-87
2023/08/06 10:40:43;;;;;;;2.92;2.72;;;;;;;;;;5057951;28;20051;-87
2023/08/06 10:43:25;;;;;;;3.60;3.30;;;;;;;;;;5059456;28;20053;-86
2023/08/06 10:45:51;;;;;;;3.13;3.03;;;;;;;;;;5077694;28;20036;-86
2023/08/06 10:48:30;;;;;;;3.08;2.88;;;;;;;;;;5059670;28;20059;-86
2023/08/06 10:50:56;;;;;;;2.55;2.45;;;;;;;;;;5059004;28;20055;-87
2023/08/06 10:53:22;;;;;;;2.75;2.63;;;;;;;;;;5042505;28;20090;-86
2023/08/06 10:55:49;;;;;;;3.20;3.00;;;;;;;;;;5075048;28;20101;-86
2023/08/06 10:58:18;;;;;;;3.83;2.65;;;;;;;;;;5075796;28;20048;-86
2023/08/06 11:00:44;;;;;;;3.55;3.35;;;;;;;;;;5060062;28;20047;-86
2023/08/06 11:03:10;;;;;;;2.72;2.55;;;;;;;;;;5075025;28;20060;-87
2023/08/06 11:05:36;;;;;;;2.83;2.00;;;;;;;;;;5076944;28;20132;-87
2023/08/06 11:08:03;;;;;;;2.95;1.65;;;;;;;;;;5058917;28;20044;-86
2023/08/06 11:10:29;;;;;;;1.98;1.88;;;;;;;;;;5077534;28;20037;-85
2023/08/06 11:12:55;;;;;;;1.80;1.55;;;;;;;;;;5075626;28;20055;-86
2023/08/06 11:15:21;;;;;;;2.20;1.70;;;;;;;;;;5058191;28;20049;-86
2023/08/06 11:17:48;;;;;;;1.60;1.50;;;;;;;;;;5058030;28;20044;-87
2023/08/06 11:20:14;;;;;;;2.63;1.88;;;;;;;;;;5076379;28;20041;-87
2023/08/06 11:22:40;;;;;;;3.45;1.73;;;;;;;;;;5044754;28;20044;-87
2023/08/06 11:25:07;;;;;;;1.67;1.30;;;;;;;;;;5058194;28;20048;-87
2023/08/06 11:27:33;;;;;;;1.52;1.42;;;;;;;;;;5058104;28;20158;-87
2023/08/06 11:29:59;;;;;;;1.88;1.00;;;;;;;;;;5074484;28;20458;-87
2023/08/06 11:32:27;;;;;;;1.20;1.10;;;;;;;;;;5075925;28;20048;-87
2023/08/06 11:34:55;;;;;;;1.38;1.08;;;;;;;;;;5058580;28;20110;-86
2023/08/06 11:37:22;;;;;;;1.63;1.40;;;;;;;;;;5042478;28;20366;-87
2023/08/06 11:39:49;;;;;;;1.40;1.30;;;;;;;;;;5057631;28;20045;-86
2023/08/06 11:42:15;;;;;;;1.60;1.50;;;;;;;;;;5060815;28;20067;-87
2023/08/06 11:44:47;;;;;;;1.70;1.60;;;;;;;;;;5076574;28;20044;-87
2023/08/06 11:47:15;;;;;;;1.85;1.65;;;;;;;;;;5075113;28;20099;-87
2023/08/06 11:49:46;;;;;;;1.48;1.38;;;;;;;;;;5074851;28;20071;-87
2023/08/06 11:52:25;;;;;;;2.45;1.40;;;;;;;;;;5074179;28;20045;-87
2023/08/06 11:55:11;;;;;;;1.52;1.20;;;;;;;;;;5076167;28;20055;-87
2023/08/06 11:57:39;;;;;;;1.15;0.90;;;;;;;;;;5058671;28;20064;-88
2023/08/06 12:00:12;;;;;;;1.23;0.82;;;;;;;;;;5073703;28;20044;-87
2023/08/06 12:02:42;;;;;;;1.02;0.93;;;;;;;;;;5058419;28;20053;-87
2023/08/06 12:05:20;;;;;;;0.88;0.57;;;;;;;;;;5073929;28;20123;-88
2023/08/06 12:07:50;;;;;;;1.05;0.40;;;;;;;;;;5054871;28;20048;-87
2023/08/06 12:10:17;;;;;;;0.50;0.38;;;;;;;;;;5054527;28;20056;-86
2023/08/06 12:12:43;;;;;;;1.63;0.40;;;;;;;;;;5038537;28;20098;-86
2023/08/06 12:15:10;;;;;;;1.67;0.40;;;;;;;;;;5054200;28;20085;-87
2023/08/06 12:17:36;;;;;;;1.13;0.40;;;;;;;;;;5021420;28;20131;-87
2023/08/06 12:20:06;;;;;;;1.60;0.40;;;;;;;;;;5054022;28;20077;-86
2023/08/06 12:22:35;;;;;;;2.35;0.40;;;;;;;;;;5053633;28;20045;-87
2023/08/06 12:25:07;;;;;;;1.35;0.60;;;;;;;;;;5053892;28;20052;-87
2023/08/06 12:27:34;;;;;;;0.93;0.50;;;;;;;;;;5053841;28;20110;-87
2023/08/06 12:30:00;;;;;;;1.83;0.68;;;;;;;;;;5053799;28;20044;-87
2023/08/06 12:32:26;;;;;;;1.17;0.50;;;;;;;;;;5037263;28;20094;-87
2023/08/06 12:34:52;;;;;;;1.30;0.60;;;;;;;;;;5053539;28;20539;-85
2023/08/06 12:37:18;;;;;;;0.95;0.60;;;;;;;;;;5053957;28;20056;-85
2023/08/06 12:39:44;;;;;;;1.15;0.52;;;;;;;;;;5020582;28;20056;-85
2023/08/06 12:42:10;;;;;;;2.00;0.70;;;;;;;;;;5037647;28;20040;-86
2023/08/06 12:44:36;;;;;;;0.70;0.47;;;;;;;;;;5053532;28;20045;-85
2023/08/06 12:47:03;;;;;;;1.90;0.50;;;;;;;;;;5037055;28;20051;-84
2023/08/06 12:49:30;;;;;;;0.90;0.60;;;;;;;;;;5053389;28;20045;-85
2023/08/06 12:51:57;;;;;;;0.85;0.63;;;;;;;;;;5037258;28;20497;-85
2023/08/06 12:54:23;;;;;;;0.60;0.50;;;;;;;;;;5020211;28;20056;-85
2023/08/06 12:56:50;;;;;;;1.55;0.43;;;;;;;;;;5040484;28;20049;-86
2023/08/06 12:59:16;;;;;;;0.80;0.40;;;;;;;;;;5040730;28;20446;-85
2023/08/06 13:01:43;;;;;;;0.90;0.50;;;;;;;;;;5057466;28;20397;-90
2023/08/06 13:04:10;;;;;;;0.63;0.45;;;;;;;;;;5040106;28;20068;-85
2023/08/06 13:06:36;;;;;;;0.90;0.60;;;;;;;;;;5057733;28;20140;-86
2023/08/06 13:09:12;;;;;;;0.70;0.52;;;;;;;;;;5039530;28;20116;-87
2023/08/06 13:11:39;;;;;;;1.30;0.60;;;;;;;;;;5092351;28;20045;-87
2023/08/06 13:14:12;;;;;;;2.85;0.85;;;;;;;;;;5060046;28;20178;-87
2023/08/06 13:16:38;;;;;;;2.75;0.88;;;;;;;;;;5076861;28;20502;-86
2023/08/06 13:19:05;;;;;;;1.75;0.77;;;;;;;;;;5060637;28;20052;-86
2023/08/06 13:21:33;;;;;;;1.20;1.10;;;;;;;;;;5077594;28;20049;-86
2023/08/06 13:24:00;;;;;;;1.45;1.23;;;;;;;;;;5060914;28;20074;-86
2023/08/06 13:26:26;;;;;;;1.50;0.85;;;;;;;;;;5077811;28;20132;-86
2023/08/06 13:28:52;;;;;;;1.48;1.35;;;;;;;;;;5077321;28;20492;-86
2023/08/06 13:31:18;;;;;;;1.65;1.00;;;;;;;;;;5060431;28;20078;-86
2023/08/06 13:33:44;;;;;;;0.85;0.85;;;;;;;;;;5076954;28;20480;-87
2023/08/06 13:36:10;;;;;;;2.67;0.95;;;;;;;;;;5060263;28;20048;-87
2023/08/06 13:38:36;;;;;;;2.25;1.33;;;;;;;;;;5057703;28;20062;-87
2023/08/06 13:41:02;;;;;;;3.47;1.10;;;;;;;;;;5076497;28;20048;-87
2023/08/06 13:43:28;;;;;;;2.22;1.27;;;;;;;;;;5067089;28;20040;-87
2023/08/06 13:45:54;;;;;;;1.52;0.90;;;;;;;;;;5074147;28;20044;-87
2023/08/06 13:48:20;;;;;;;1.80;1.10;;;;;;;;;;5043294;28;20076;-88
2023/08/06 13:50:47;;;;;;;0.70;0.60;;;;;;;;;;5076705;28;20051;-88
2023/08/06 13:53:13;;;;;;;1.25;0.60;;;;;;;;;;5056814;28;20048;-89
2023/08/06 13:55:39;;;;;;;0.77;0.77;;;;;;;;;;5077208;28;20487;-88
2023/08/06 13:58:05;;;;;;;1.30;0.70;;;;;;;;;;5059022;28;20044;-88
2023/08/06 14:00:31;;;;;;;1.13;0.95;;;;;;;;;;5059423;28;20430;-88
2023/08/06 14:02:57;;;;;;;0.90;0.60;;;;;;;;;;5058890;28;20049;-87
2023/08/06 14:05:23;;;;;;;0.90;0.70;;;;;;;;;;5076126;28;20056;-89
2023/08/06 14:07:49;;;;;;;0.82;0.70;;;;;;;;;;5059374;28;20044;-88
2023/08/06 14:10:15;;;;;;;2.45;0.80;;;;;;;;;;5058775;28;20484;-87
2023/08/06 14:12:41;;;;;;;0.85;0.80;;;;;;;;;;5043209;28;20142;-88
2023/08/06 14:15:08;;;;;;;0.95;0.77;;;;;;;;;;5060241;28;20108;-88
2023/08/06 14:17:34;;;;;;;0.85;0.85;;;;;;;;;;5058535;28;20048;-85
2023/08/06 14:20:00;;;;;;;2.40;2.20;;;;;;;;;;5058516;28;20089;-86
2023/08/06 14:22:26;;;;;;;1.92;1.60;;;;;;;;;;5059421;28;20067;-89
2023/08/06 14:24:53;;;;;;;1.80;1.58;;;;;;;;;;5059127;28;20056;-88
2023/08/06 14:27:19;;;;;;;1.65;1.55;;;;;;;;;;5076288;28;20481;-89
2023/08/06 14:29:45;;;;;;;2.60;1.98;;;;;;;;;;5059547;28;20037;-89
2023/08/06 14:32:11;;;;;;;2.72;1.40;;;;;;;;;;5076101;28;20040;-89
2023/08/06 14:34:37;;;;;;;2.42;1.77;;;;;;;;;;5060181;28;20053;-90